Itapecerica, Brazil
Current Conditions -  °F | °C
As of 10:00 AM on Monday 24 Nov 2014 (Local Time) from SBPR Reporting Station
Light Rain Light Rain  
Wind Chill: 72°   Ceiling: 2500
Heat Index: 72°   Visibility: 5mi
Dew Point: 68°   Wind: 10mph
Humidity: 88%   Direction: 130°SE
Pressure: 30.12"   Gusts: NA
Location:  20.47°S, 45.13°W
Report Text: SBPR 241200Z 13009KT 8000 -RA FEW010 BKN025 OVC080 22/20 Q1020
Loading
Personal Weather Stations






























Interactive Weather Map New forecast layout! Learn more

10-Day Weather Forecast

Advertisements
Track Severe Weather on mobile